sensor_id;sensor_type;location;lat;lon;timestamp;temperature;humidity
14585;DHT22;7379;51.506;11.876;2023-05-15T00:02:05;17.60;57.30
14585;DHT22;7379;51.506;11.876;2023-05-15T00:04:32;17.60;57.30
14585;DHT22;7379;51.506;11.876;2023-05-15T00:06:59;17.60;57.30
14585;DHT22;7379;51.506;11.876;2023-05-15T00:09:26;17.60;57.40
14585;DHT22;7379;51.506;11.876;2023-05-15T00:11:54;17.60;57.40
14585;DHT22;7379;51.506;11.876;2023-05-15T00:14:21;17.60;57.50
14585;DHT22;7379;51.506;11.876;2023-05-15T00:16:47;17.50;57.40
14585;DHT22;7379;51.506;11.876;2023-05-15T00:19:14;17.50;57.50
14585;DHT22;7379;51.506;11.876;2023-05-15T00:21:41;17.50;57.50
14585;DHT22;7379;51.506;11.876;2023-05-15T00:24:08;17.50;57.50
14585;DHT22;7379;51.506;11.876;2023-05-15T00:26:35;17.50;57.50
14585;DHT22;7379;51.506;11.876;2023-05-15T00:29:03;17.50;57.60
14585;DHT22;7379;51.506;11.876;2023-05-15T00:31:29;17.50;57.70
14585;DHT22;7379;51.506;11.876;2023-05-15T00:33:57;17.40;57.60
14585;DHT22;7379;51.506;11.876;2023-05-15T00:36:24;17.40;57.60
14585;DHT22;7379;51.506;11.876;2023-05-15T00:38:51;17.40;57.70
14585;DHT22;7379;51.506;11.876;2023-05-15T00:41:19;17.40;57.70
14585;DHT22;7379;51.506;11.876;2023-05-15T00:43:49;17.40;58.40
14585;DHT22;7379;51.506;11.876;2023-05-15T00:46:18;17.40;57.80
14585;DHT22;7379;51.506;11.876;2023-05-15T00:48:46;17.40;57.90
14585;DHT22;7379;51.506;11.876;2023-05-15T00:51:14;17.30;57.80
14585;DHT22;7379;51.506;11.876;2023-05-15T00:53:41;17.30;57.90
14585;DHT22;7379;51.506;11.876;2023-05-15T00:56:10;17.30;57.90
14585;DHT22;7379;51.506;11.876;2023-05-15T00:58:37;17.30;58.00
14585;DHT22;7379;51.506;11.876;2023-05-15T01:01:04;17.30;58.00
14585;DHT22;7379;51.506;11.876;2023-05-15T01:03:32;17.30;58.10
14585;DHT22;7379;51.506;11.876;2023-05-15T01:06:00;17.30;58.20
14585;DHT22;7379;51.506;11.876;2023-05-15T01:08:34;17.30;58.20
14585;DHT22;7379;51.506;11.876;2023-05-15T01:11:04;17.20;58.20
14585;DHT22;7379;51.506;11.876;2023-05-15T01:13:33;17.20;58.20
14585;DHT22;7379;51.506;11.876;2023-05-15T01:16:00;17.20;58.20
14585;DHT22;7379;51.506;11.876;2023-05-15T01:18:26;17.20;58.30
14585;DHT22;7379;51.506;11.876;2023-05-15T01:21:17;17.20;58.30
14585;DHT22;7379;51.506;11.876;2023-05-15T01:23:59;17.20;58.40
14585;DHT22;7379;51.506;11.876;2023-05-15T01:26:50;17.10;58.40
14585;DHT22;7379;51.506;11.876;2023-05-15T01:29:25;17.10;59.00
14585;DHT22;7379;51.506;11.876;2023-05-15T01:31:56;17.10;58.40
14585;DHT22;7379;51.506;11.876;2023-05-15T01:34:30;17.00;58.30
14585;DHT22;7379;51.506;11.876;2023-05-15T01:37:02;17.00;58.40
14585;DHT22;7379;51.506;11.876;2023-05-15T01:39:32;17.00;58.40
14585;DHT22;7379;51.506;11.876;2023-05-15T01:42:02;17.00;58.40
14585;DHT22;7379;51.506;11.876;2023-05-15T01:44:35;17.00;58.40
14585;DHT22;7379;51.506;11.876;2023-05-15T01:47:06;16.90;58.40
14585;DHT22;7379;51.506;11.876;2023-05-15T01:49:34;16.90;58.40
14585;DHT22;7379;51.506;11.876;2023-05-15T01:52:05;16.90;58.40
14585;DHT22;7379;51.506;11.876;2023-05-15T01:54:35;16.90;58.50
14585;DHT22;7379;51.506;11.876;2023-05-15T01:57:03;16.90;58.50
14585;DHT22;7379;51.506;11.876;2023-05-15T01:59:33;16.80;58.50
14585;DHT22;7379;51.506;11.876;2023-05-15T02:02:01;16.80;58.50
14585;DHT22;7379;51.506;11.876;2023-05-15T02:04:29;16.80;58.50
14585;DHT22;7379;51.506;11.876;2023-05-15T02:06:56;16.80;58.50
14585;DHT22;7379;51.506;11.876;2023-05-15T02:09:24;16.80;58.50
14585;DHT22;7379;51.506;11.876;2023-05-15T02:11:51;16.80;58.50
14585;DHT22;7379;51.506;11.876;2023-05-15T02:14:19;16.80;58.50
14585;DHT22;7379;51.506;11.876;2023-05-15T02:16:48;16.70;59.10
14585;DHT22;7379;51.506;11.876;2023-05-15T02:19:15;16.70;58.50
14585;DHT22;7379;51.506;11.876;2023-05-15T02:21:42;16.60;58.50
14585;DHT22;7379;51.506;11.876;2023-05-15T02:24:09;16.60;58.50
14585;DHT22;7379;51.506;11.876;2023-05-15T02:26:44;16.60;59.20
14585;DHT22;7379;51.506;11.876;2023-05-15T02:29:18;16.60;58.60
14585;DHT22;7379;51.506;11.876;2023-05-15T02:31:54;16.60;59.30
14585;DHT22;7379;51.506;11.876;2023-05-15T02:34:27;16.50;58.60
14585;DHT22;7379;51.506;11.876;2023-05-15T02:37:00;16.50;58.60
14585;DHT22;7379;51.506;11.876;2023-05-15T02:39:28;16.50;58.70
14585;DHT22;7379;51.506;11.876;2023-05-15T02:41:55;16.50;58.70
14585;DHT22;7379;51.506;11.876;2023-05-15T02:44:23;16.50;58.70
14585;DHT22;7379;51.506;11.876;2023-05-15T02:46:53;16.40;58.70
14585;DHT22;7379;51.506;11.876;2023-05-15T02:49:21;16.40;58.70
14585;DHT22;7379;51.506;11.876;2023-05-15T02:51:48;16.40;58.80
14585;DHT22;7379;51.506;11.876;2023-05-15T02:54:15;16.40;58.80
14585;DHT22;7379;51.506;11.876;2023-05-15T02:56:42;16.40;58.90
14585;DHT22;7379;51.506;11.876;2023-05-15T02:59:09;16.30;58.80
14585;DHT22;7379;51.506;11.876;2023-05-15T03:01:36;16.30;58.80
14585;DHT22;7379;51.506;11.876;2023-05-15T03:04:04;16.30;58.90
14585;DHT22;7379;51.506;11.876;2023-05-15T03:06:31;16.30;58.90
14585;DHT22;7379;51.506;11.876;2023-05-15T03:08:57;16.30;59.00
14585;DHT22;7379;51.506;11.876;2023-05-15T03:11:24;16.30;59.00
14585;DHT22;7379;51.506;11.876;2023-05-15T03:13:51;16.20;58.90
14585;DHT22;7379;51.506;11.876;2023-05-15T03:16:18;16.20;59.00
14585;DHT22;7379;51.506;11.876;2023-05-15T03:18:44;16.20;59.00
14585;DHT22;7379;51.506;11.876;2023-05-15T03:21:13;16.20;59.00
14585;DHT22;7379;51.506;11.876;2023-05-15T03:23:40;16.20;59.00
14585;DHT22;7379;51.506;11.876;2023-05-15T03:26:06;16.10;59.00
14585;DHT22;7379;51.506;11.876;2023-05-15T03:28:33;16.10;59.00
14585;DHT22;7379;51.506;11.876;2023-05-15T03:31:00;16.10;59.00
14585;DHT22;7379;51.506;11.876;2023-05-15T03:33:29;16.10;59.00
14585;DHT22;7379;51.506;11.876;2023-05-15T03:35:56;16.10;59.10
14585;DHT22;7379;51.506;11.876;2023-05-15T03:38:24;16.00;59.00
14585;DHT22;7379;51.506;11.876;2023-05-15T03:40:51;16.00;59.10
14585;DHT22;7379;51.506;11.876;2023-05-15T03:43:17;16.00;59.10
14585;DHT22;7379;51.506;11.876;2023-05-15T03:45:44;16.00;59.10
14585;DHT22;7379;51.506;11.876;2023-05-15T03:48:11;16.00;59.20
14585;DHT22;7379;51.506;11.876;2023-05-15T03:50:38;15.90;59.20
14585;DHT22;7379;51.506;11.876;2023-05-15T03:53:05;15.90;59.30
14585;DHT22;7379;51.506;11.876;2023-05-15T03:55:33;15.90;59.30
14585;DHT22;7379;51.506;11.876;2023-05-15T03:58:01;15.90;59.30
14585;DHT22;7379;51.506;11.876;2023-05-15T04:00:27;15.90;59.40
14585;DHT22;7379;51.506;11.876;2023-05-15T04:02:54;15.80;59.30
14585;DHT22;7379;51.506;11.876;2023-05-15T04:05:21;15.90;59.40
14585;DHT22;7379;51.506;11.876;2023-05-15T04:07:48;15.80;59.40
14585;DHT22;7379;51.506;11.876;2023-05-15T04:10:14;15.80;59.40
14585;DHT22;7379;51.506;11.876;2023-05-15T04:12:43;15.70;59.00
14585;DHT22;7379;51.506;11.876;2023-05-15T04:15:14;15.70;59.20
14585;DHT22;7379;51.506;11.876;2023-05-15T04:17:41;15.70;59.40
14585;DHT22;7379;51.506;11.876;2023-05-15T04:20:09;15.60;59.40
14585;DHT22;7379;51.506;11.876;2023-05-15T04:22:36;15.60;59.40
14585;DHT22;7379;51.506;11.876;2023-05-15T04:25:03;15.60;59.50
14585;DHT22;7379;51.506;11.876;2023-05-15T04:27:32;15.60;59.50
14585;DHT22;7379;51.506;11.876;2023-05-15T04:30:00;15.60;59.60
14585;DHT22;7379;51.506;11.876;2023-05-15T04:32:28;15.60;59.60
14585;DHT22;7379;51.506;11.876;2023-05-15T04:34:55;15.60;59.60
14585;DHT22;7379;51.506;11.876;2023-05-15T04:37:22;15.60;59.60
14585;DHT22;7379;51.506;11.876;2023-05-15T04:39:49;15.70;59.70
14585;DHT22;7379;51.506;11.876;2023-05-15T04:42:16;15.60;59.60
14585;DHT22;7379;51.506;11.876;2023-05-15T04:44:42;15.60;59.60
14585;DHT22;7379;51.506;11.876;2023-05-15T04:47:11;15.60;59.60
14585;DHT22;7379;51.506;11.876;2023-05-15T04:49:38;15.60;59.60
14585;DHT22;7379;51.506;11.876;2023-05-15T04:52:05;15.60;59.70
14585;DHT22;7379;51.506;11.876;2023-05-15T04:54:32;15.60;59.70
14585;DHT22;7379;51.506;11.876;2023-05-15T04:56:59;15.60;59.70
14585;DHT22;7379;51.506;11.876;2023-05-15T04:59:26;15.60;59.70
14585;DHT22;7379;51.506;11.876;2023-05-15T05:01:53;15.60;59.80
14585;DHT22;7379;51.506;11.876;2023-05-15T05:04:21;15.60;59.80
14585;DHT22;7379;51.506;11.876;2023-05-15T05:06:48;15.60;59.80
14585;DHT22;7379;51.506;11.876;2023-05-15T05:09:17;15.60;59.90
14585;DHT22;7379;51.506;11.876;2023-05-15T05:11:44;15.50;59.80
14585;DHT22;7379;51.506;11.876;2023-05-15T05:14:12;15.50;59.80
14585;DHT22;7379;51.506;11.876;2023-05-15T05:16:39;15.50;59.80
14585;DHT22;7379;51.506;11.876;2023-05-15T05:19:06;15.50;59.80
14585;DHT22;7379;51.506;11.876;2023-05-15T05:21:35;15.50;59.90
14585;DHT22;7379;51.506;11.876;2023-05-15T05:24:02;15.60;60.00
14585;DHT22;7379;51.506;11.876;2023-05-15T05:26:28;15.60;60.10
14585;DHT22;7379;51.506;11.876;2023-05-15T05:28:55;15.70;60.00
14585;DHT22;7379;51.506;11.876;2023-05-15T05:31:22;15.80;60.00
14585;DHT22;7379;51.506;11.876;2023-05-15T05:33:49;15.80;59.90
14585;DHT22;7379;51.506;11.876;2023-05-15T05:36:17;15.80;59.70
14585;DHT22;7379;51.506;11.876;2023-05-15T05:38:45;15.80;59.70
14585;DHT22;7379;51.506;11.876;2023-05-15T05:41:12;15.70;60.40
14585;DHT22;7379;51.506;11.876;2023-05-15T05:43:39;15.70;59.80
14585;DHT22;7379;51.506;11.876;2023-05-15T05:46:06;15.70;59.80
14585;DHT22;7379;51.506;11.876;2023-05-15T05:48:32;15.60;59.80
14585;DHT22;7379;51.506;11.876;2023-05-15T05:50:59;15.60;60.00
14585;DHT22;7379;51.506;11.876;2023-05-15T05:53:26;15.60;60.00
14585;DHT22;7379;51.506;11.876;2023-05-15T05:55:54;15.60;60.10
14585;DHT22;7379;51.506;11.876;2023-05-15T05:58:21;15.60;60.20
14585;DHT22;7379;51.506;11.876;2023-05-15T06:00:48;15.60;60.30
14585;DHT22;7379;51.506;11.876;2023-05-15T06:03:15;15.50;60.30
14585;DHT22;7379;51.506;11.876;2023-05-15T06:05:42;15.50;60.50
14585;DHT22;7379;51.506;11.876;2023-05-15T06:08:08;15.50;60.70
14585;DHT22;7379;51.506;11.876;2023-05-15T06:10:35;15.60;61.10
14585;DHT22;7379;51.506;11.876;2023-05-15T06:13:03;15.60;61.20
14585;DHT22;7379;51.506;11.876;2023-05-15T06:15:31;15.60;61.40
14585;DHT22;7379;51.506;11.876;2023-05-15T06:17:57;15.70;61.50
14585;DHT22;7379;51.506;11.876;2023-05-15T06:20:24;15.70;61.50
14585;DHT22;7379;51.506;11.876;2023-05-15T06:22:51;15.80;61.50
14585;DHT22;7379;51.506;11.876;2023-05-15T06:25:18;15.80;61.50
14585;DHT22;7379;51.506;11.876;2023-05-15T06:27:45;15.80;61.50
14585;DHT22;7379;51.506;11.876;2023-05-15T06:30:14;15.80;61.50
14585;DHT22;7379;51.506;11.876;2023-05-15T06:32:41;15.80;61.60
14585;DHT22;7379;51.506;11.876;2023-05-15T06:35:09;15.80;61.80
14585;DHT22;7379;51.506;11.876;2023-05-15T06:37:36;15.90;62.00
14585;DHT22;7379;51.506;11.876;2023-05-15T06:40:04;15.90;62.00
14585;DHT22;7379;51.506;11.876;2023-05-15T06:42:31;15.90;62.10
14585;DHT22;7379;51.506;11.876;2023-05-15T06:44:58;15.90;62.20
14585;DHT22;7379;51.506;11.876;2023-05-15T06:47:26;15.90;62.20
14585;DHT22;7379;51.506;11.876;2023-05-15T06:49:53;16.00;62.50
14585;DHT22;7379;51.506;11.876;2023-05-15T06:52:20;16.00;62.50
14585;DHT22;7379;51.506;11.876;2023-05-15T06:54:47;16.00;62.60
14585;DHT22;7379;51.506;11.876;2023-05-15T06:57:14;16.00;62.70
14585;DHT22;7379;51.506;11.876;2023-05-15T06:59:41;16.10;62.70
14585;DHT22;7379;51.506;11.876;2023-05-15T07:02:08;16.10;62.50
14585;DHT22;7379;51.506;11.876;2023-05-15T07:04:36;16.10;62.50
14585;DHT22;7379;51.506;11.876;2023-05-15T07:07:03;16.20;62.40
14585;DHT22;7379;51.506;11.876;2023-05-15T07:09:30;16.20;62.50
14585;DHT22;7379;51.506;11.876;2023-05-15T07:11:57;16.20;62.50
14585;DHT22;7379;51.506;11.876;2023-05-15T07:14:24;16.20;62.70
14585;DHT22;7379;51.506;11.876;2023-05-15T07:16:51;16.30;62.70
14585;DHT22;7379;51.506;11.876;2023-05-15T07:19:18;16.30;62.60
14585;DHT22;7379;51.506;11.876;2023-05-15T07:21:47;16.30;62.50
14585;DHT22;7379;51.506;11.876;2023-05-15T07:24:14;16.40;62.60
14585;DHT22;7379;51.506;11.876;2023-05-15T07:26:40;16.40;62.50
14585;DHT22;7379;51.506;11.876;2023-05-15T07:29:07;16.40;62.50
14585;DHT22;7379;51.506;11.876;2023-05-15T07:31:34;16.40;62.40
14585;DHT22;7379;51.506;11.876;2023-05-15T07:34:01;16.40;62.40
14585;DHT22;7379;51.506;11.876;2023-05-15T07:36:28;16.50;62.40
14585;DHT22;7379;51.506;11.876;2023-05-15T07:38:57;16.50;62.40
14585;DHT22;7379;51.506;11.876;2023-05-15T07:41:24;16.50;63.00
14585;DHT22;7379;51.506;11.876;2023-05-15T07:43:51;16.50;62.20
14585;DHT22;7379;51.506;11.876;2023-05-15T07:46:17;16.50;62.20
14585;DHT22;7379;51.506;11.876;2023-05-15T07:48:44;16.60;62.30
14585;DHT22;7379;51.506;11.876;2023-05-15T07:51:11;16.60;62.30
14585;DHT22;7379;51.506;11.876;2023-05-15T07:53:38;16.60;62.20
14585;DHT22;7379;51.506;11.876;2023-05-15T07:56:06;16.60;62.10
14585;DHT22;7379;51.506;11.876;2023-05-15T07:58:33;16.70;62.10
14585;DHT22;7379;51.506;11.876;2023-05-15T08:01:01;16.70;62.00
14585;DHT22;7379;51.506;11.876;2023-05-15T08:03:28;16.70;61.90
14585;DHT22;7379;51.506;11.876;2023-05-15T08:05:55;16.70;61.80
14585;DHT22;7379;51.506;11.876;2023-05-15T08:08:21;16.70;61.60
14585;DHT22;7379;51.506;11.876;2023-05-15T08:10:48;16.70;61.50
14585;DHT22;7379;51.506;11.876;2023-05-15T08:13:16;16.70;61.40
14585;DHT22;7379;51.506;11.876;2023-05-15T08:15:43;16.70;61.30
14585;DHT22;7379;51.506;11.876;2023-05-15T08:18:10;16.70;61.40
14585;DHT22;7379;51.506;11.876;2023-05-15T08:20:37;16.80;61.60
14585;DHT22;7379;51.506;11.876;2023-05-15T08:23:04;16.80;61.50
14585;DHT22;7379;51.506;11.876;2023-05-15T08:25:31;16.80;61.50
14585;DHT22;7379;51.506;11.876;2023-05-15T08:27:57;16.80;61.40
14585;DHT22;7379;51.506;11.876;2023-05-15T08:30:26;16.90;61.50
14585;DHT22;7379;51.506;11.876;2023-05-15T08:32:53;16.90;61.40
14585;DHT22;7379;51.506;11.876;2023-05-15T08:35:20;16.90;61.50
14585;DHT22;7379;51.506;11.876;2023-05-15T08:37:46;16.90;61.40
14585;DHT22;7379;51.506;11.876;2023-05-15T08:40:14;16.90;61.40
14585;DHT22;7379;51.506;11.876;2023-05-15T08:42:43;16.90;61.40
14585;DHT22;7379;51.506;11.876;2023-05-15T08:45:11;16.90;61.10
14585;DHT22;7379;51.506;11.876;2023-05-15T08:47:41;16.90;61.10
14585;DHT22;7379;51.506;11.876;2023-05-15T08:50:10;16.90;61.00
14585;DHT22;7379;51.506;11.876;2023-05-15T08:52:39;16.90;61.00
14585;DHT22;7379;51.506;11.876;2023-05-15T08:55:08;16.90;61.10
14585;DHT22;7379;51.506;11.876;2023-05-15T08:57:36;16.90;61.00
14585;DHT22;7379;51.506;11.876;2023-05-15T09:00:04;16.90;60.90
14585;DHT22;7379;51.506;11.876;2023-05-15T09:02:34;16.90;60.70
14585;DHT22;7379;51.506;11.876;2023-05-15T09:05:02;16.90;60.80
14585;DHT22;7379;51.506;11.876;2023-05-15T09:07:29;16.90;60.70
14585;DHT22;7379;51.506;11.876;2023-05-15T09:09:57;16.90;60.70
14585;DHT22;7379;51.506;11.876;2023-05-15T09:12:25;16.90;60.60
14585;DHT22;7379;51.506;11.876;2023-05-15T09:15:07;16.90;60.50
14585;DHT22;7379;51.506;11.876;2023-05-15T09:17:34;16.90;60.50
14585;DHT22;7379;51.506;11.876;2023-05-15T09:20:03;16.90;60.30
14585;DHT22;7379;51.506;11.876;2023-05-15T09:22:33;16.90;60.30
14585;DHT22;7379;51.506;11.876;2023-05-15T09:25:00;16.90;60.20
14585;DHT22;7379;51.506;11.876;2023-05-15T09:27:27;16.90;59.90
14585;DHT22;7379;51.506;11.876;2023-05-15T09:29:54;16.90;59.70
14585;DHT22;7379;51.506;11.876;2023-05-15T09:32:25;16.90;59.50
14585;DHT22;7379;51.506;11.876;2023-05-15T09:34:53;16.90;59.60
14585;DHT22;7379;51.506;11.876;2023-05-15T09:37:31;16.90;59.60
14585;DHT22;7379;51.506;11.876;2023-05-15T09:40:09;16.90;59.40
14585;DHT22;7379;51.506;11.876;2023-05-15T09:42:37;16.90;59.40
14585;DHT22;7379;51.506;11.876;2023-05-15T09:45:04;16.90;59.10
14585;DHT22;7379;51.506;11.876;2023-05-15T09:47:32;17.00;59.00
14585;DHT22;7379;51.506;11.876;2023-05-15T09:49:59;16.90;59.00
14585;DHT22;7379;51.506;11.876;2023-05-15T09:52:26;17.00;59.00
14585;DHT22;7379;51.506;11.876;2023-05-15T09:54:55;17.00;59.00
14585;DHT22;7379;51.506;11.876;2023-05-15T09:57:22;17.00;58.60
14585;DHT22;7379;51.506;11.876;2023-05-15T09:59:49;17.00;58.60
14585;DHT22;7379;51.506;11.876;2023-05-15T10:02:22;17.00;58.70
14585;DHT22;7379;51.506;11.876;2023-05-15T10:04:54;17.00;58.40
14585;DHT22;7379;51.506;11.876;2023-05-15T10:07:28;17.00;58.60
14585;DHT22;7379;51.506;11.876;2023-05-15T10:09:57;17.10;58.90
14585;DHT22;7379;51.506;11.876;2023-05-15T10:12:24;17.10;59.60
14585;DHT22;7379;51.506;11.876;2023-05-15T10:14:52;17.10;59.10
14585;DHT22;7379;51.506;11.876;2023-05-15T10:17:20;17.10;59.00
14585;DHT22;7379;51.506;11.876;2023-05-15T10:19:48;17.10;59.10
14585;DHT22;7379;51.506;11.876;2023-05-15T10:22:17;17.20;59.10
14585;DHT22;7379;51.506;11.876;2023-05-15T10:24:46;17.20;59.10
14585;DHT22;7379;51.506;11.876;2023-05-15T10:27:15;17.20;58.80
14585;DHT22;7379;51.506;11.876;2023-05-15T10:29:43;17.20;58.60
14585;DHT22;7379;51.506;11.876;2023-05-15T10:32:12;17.30;58.70
14585;DHT22;7379;51.506;11.876;2023-05-15T10:34:38;17.30;58.60
14585;DHT22;7379;51.506;11.876;2023-05-15T10:37:06;17.30;58.10
14585;DHT22;7379;51.506;11.876;2023-05-15T10:39:34;17.40;58.20
14585;DHT22;7379;51.506;11.876;2023-05-15T10:42:03;17.50;58.20
14585;DHT22;7379;51.506;11.876;2023-05-15T10:44:32;17.50;58.20
14585;DHT22;7379;51.506;11.876;2023-05-15T10:46:58;17.60;57.90
14585;DHT22;7379;51.506;11.876;2023-05-15T10:49:26;17.60;57.90
14585;DHT22;7379;51.506;11.876;2023-05-15T10:51:53;17.70;58.00
14585;DHT22;7379;51.506;11.876;2023-05-15T10:54:21;17.70;58.00
14585;DHT22;7379;51.506;11.876;2023-05-15T10:56:48;17.70;57.90
14585;DHT22;7379;51.506;11.876;2023-05-15T10:59:14;17.80;56.80
14585;DHT22;7379;51.506;11.876;2023-05-15T11:01:43;17.80;56.60
14585;DHT22;7379;51.506;11.876;2023-05-15T11:04:11;17.80;56.50
14585;DHT22;7379;51.506;11.876;2023-05-15T11:06:39;17.90;56.60
14585;DHT22;7379;51.506;11.876;2023-05-15T11:09:37;17.90;56.80
14585;DHT22;7379;51.506;11.876;2023-05-15T11:12:06;17.90;56.90
14585;DHT22;7379;51.506;11.876;2023-05-15T11:14:36;17.90;56.30
14585;DHT22;7379;51.506;11.876;2023-05-15T11:17:06;17.90;56.40
14585;DHT22;7379;51.506;11.876;2023-05-15T11:19:35;18.00;57.00
14585;DHT22;7379;51.506;11.876;2023-05-15T11:22:16;18.00;56.50
14585;DHT22;7379;51.506;11.876;2023-05-15T11:24:48;18.10;56.20
14585;DHT22;7379;51.506;11.876;2023-05-15T11:27:17;18.10;56.30
14585;DHT22;7379;51.506;11.876;2023-05-15T11:30:06;18.10;56.20
14585;DHT22;7379;51.506;11.876;2023-05-15T11:32:42;18.10;54.90
14585;DHT22;7379;51.506;11.876;2023-05-15T11:35:09;18.10;55.60
14585;DHT22;7379;51.506;11.876;2023-05-15T11:37:37;18.20;55.70
14585;DHT22;7379;51.506;11.876;2023-05-15T11:40:11;18.20;55.60
14585;DHT22;7379;51.506;11.876;2023-05-15T11:42:39;18.30;55.40
14585;DHT22;7379;51.506;11.876;2023-05-15T11:45:08;18.30;55.30
14585;DHT22;7379;51.506;11.876;2023-05-15T11:47:36;18.30;55.00
14585;DHT22;7379;51.506;11.876;2023-05-15T11:50:05;18.40;54.90
14585;DHT22;7379;51.506;11.876;2023-05-15T11:52:32;18.40;54.80
14585;DHT22;7379;51.506;11.876;2023-05-15T11:55:00;18.40;55.30
14585;DHT22;7379;51.506;11.876;2023-05-15T11:57:28;18.40;55.30
14585;DHT22;7379;51.506;11.876;2023-05-15T11:59:55;18.40;56.10
14585;DHT22;7379;51.506;11.876;2023-05-15T12:02:22;18.40;55.50
14585;DHT22;7379;51.506;11.876;2023-05-15T12:04:49;18.50;55.30
14585;DHT22;7379;51.506;11.876;2023-05-15T12:07:17;18.40;55.50
14585;DHT22;7379;51.506;11.876;2023-05-15T12:09:49;18.40;55.30
14585;DHT22;7379;51.506;11.876;2023-05-15T12:12:16;18.40;54.40
14585;DHT22;7379;51.506;11.876;2023-05-15T12:14:43;18.40;54.90
14585;DHT22;7379;51.506;11.876;2023-05-15T12:17:10;18.50;54.80
14585;DHT22;7379;51.506;11.876;2023-05-15T12:19:37;18.50;55.00
14585;DHT22;7379;51.506;11.876;2023-05-15T12:22:05;18.50;54.90
14585;DHT22;7379;51.506;11.876;2023-05-15T12:24:36;18.50;54.80
14585;DHT22;7379;51.506;11.876;2023-05-15T12:27:04;18.50;54.80
14585;DHT22;7379;51.506;11.876;2023-05-15T12:29:31;18.50;54.70
14585;DHT22;7379;51.506;11.876;2023-05-15T12:31:58;18.50;54.70
14585;DHT22;7379;51.506;11.876;2023-05-15T12:34:25;18.50;55.20
14585;DHT22;7379;51.506;11.876;2023-05-15T12:36:52;18.50;54.90
14585;DHT22;7379;51.506;11.876;2023-05-15T12:39:19;18.50;54.60
14585;DHT22;7379;51.506;11.876;2023-05-15T12:41:47;18.50;53.80
14585;DHT22;7379;51.506;11.876;2023-05-15T12:44:19;18.50;54.30
14585;DHT22;7379;51.506;11.876;2023-05-15T12:46:46;18.50;54.40
14585;DHT22;7379;51.506;11.876;2023-05-15T12:49:17;18.40;54.80
14585;DHT22;7379;51.506;11.876;2023-05-15T12:51:46;18.40;54.90
14585;DHT22;7379;51.506;11.876;2023-05-15T12:54:16;18.40;55.30
14585;DHT22;7379;51.506;11.876;2023-05-15T12:56:43;18.40;55.70
14585;DHT22;7379;51.506;11.876;2023-05-15T12:59:12;18.30;56.00
14585;DHT22;7379;51.506;11.876;2023-05-15T13:01:39;18.30;56.50
14585;DHT22;7379;51.506;11.876;2023-05-15T13:04:08;18.20;57.00
14585;DHT22;7379;51.506;11.876;2023-05-15T13:06:37;18.10;57.50
14585;DHT22;7379;51.506;11.876;2023-05-15T13:09:04;18.10;58.10
14585;DHT22;7379;51.506;11.876;2023-05-15T13:11:33;18.10;58.60
14585;DHT22;7379;51.506;11.876;2023-05-15T13:14:00;18.00;59.00
14585;DHT22;7379;51.506;11.876;2023-05-15T13:16:28;18.00;59.30
14585;DHT22;7379;51.506;11.876;2023-05-15T13:18:55;17.90;59.70
14585;DHT22;7379;51.506;11.876;2023-05-15T13:21:22;17.90;60.10
14585;DHT22;7379;51.506;11.876;2023-05-15T13:23:50;17.90;60.30
14585;DHT22;7379;51.506;11.876;2023-05-15T13:26:17;17.90;60.30
14585;DHT22;7379;51.506;11.876;2023-05-15T13:28:43;17.80;60.30
14585;DHT22;7379;51.506;11.876;2023-05-15T13:31:10;17.80;60.10
14585;DHT22;7379;51.506;11.876;2023-05-15T13:33:39;17.80;60.10
14585;DHT22;7379;51.506;11.876;2023-05-15T13:36:06;17.80;60.10
14585;DHT22;7379;51.506;11.876;2023-05-15T13:38:33;17.80;60.50
14585;DHT22;7379;51.506;11.876;2023-05-15T13:41:00;17.80;60.50
14585;DHT22;7379;51.506;11.876;2023-05-15T13:43:27;17.80;60.40
14585;DHT22;7379;51.506;11.876;2023-05-15T13:45:53;17.80;60.40
14585;DHT22;7379;51.506;11.876;2023-05-15T13:48:20;17.90;60.60
14585;DHT22;7379;51.506;11.876;2023-05-15T13:50:49;17.90;60.60
14585;DHT22;7379;51.506;11.876;2023-05-15T13:53:15;17.90;60.60
14585;DHT22;7379;51.506;11.876;2023-05-15T13:55:42;17.90;60.40
14585;DHT22;7379;51.506;11.876;2023-05-15T13:58:10;17.90;60.60
14585;DHT22;7379;51.506;11.876;2023-05-15T14:00:37;17.90;61.00
14585;DHT22;7379;51.506;11.876;2023-05-15T14:03:04;17.90;61.10
14585;DHT22;7379;51.506;11.876;2023-05-15T14:05:31;17.90;61.80
14585;DHT22;7379;51.506;11.876;2023-05-15T14:08:00;18.00;62.60
14585;DHT22;7379;51.506;11.876;2023-05-15T14:10:26;18.10;62.40
14585;DHT22;7379;51.506;11.876;2023-05-15T14:12:54;18.20;61.70
14585;DHT22;7379;51.506;11.876;2023-05-15T14:15:20;18.40;62.80
14585;DHT22;7379;51.506;11.876;2023-05-15T14:17:47;18.80;60.00
14585;DHT22;7379;51.506;11.876;2023-05-15T14:20:15;19.30;60.30
14585;DHT22;7379;51.506;11.876;2023-05-15T14:22:41;19.60;58.80
14585;DHT22;7379;51.506;11.876;2023-05-15T14:25:10;19.70;60.00
14585;DHT22;7379;51.506;11.876;2023-05-15T14:27:36;19.60;58.90
14585;DHT22;7379;51.506;11.876;2023-05-15T14:30:04;19.40;58.80
14585;DHT22;7379;51.506;11.876;2023-05-15T14:32:40;19.20;58.70
14585;DHT22;7379;51.506;11.876;2023-05-15T14:35:07;19.00;58.80
14585;DHT22;7379;51.506;11.876;2023-05-15T14:37:35;18.80;58.70
14585;DHT22;7379;51.506;11.876;2023-05-15T14:40:01;18.60;58.70
14585;DHT22;7379;51.506;11.876;2023-05-15T14:42:31;18.50;59.20
14585;DHT22;7379;51.506;11.876;2023-05-15T14:44:57;18.40;59.50
14585;DHT22;7379;51.506;11.876;2023-05-15T14:47:24;18.30;59.60
14585;DHT22;7379;51.506;11.876;2023-05-15T14:49:52;18.30;60.00
14585;DHT22;7379;51.506;11.876;2023-05-15T14:52:19;18.20;60.00
14585;DHT22;7379;51.506;11.876;2023-05-15T14:54:46;18.20;59.60
14585;DHT22;7379;51.506;11.876;2023-05-15T14:57:13;18.10;59.50
14585;DHT22;7379;51.506;11.876;2023-05-15T14:59:46;18.00;59.50
14585;DHT22;7379;51.506;11.876;2023-05-15T15:02:12;18.00;59.30
14585;DHT22;7379;51.506;11.876;2023-05-15T15:04:39;18.00;59.20
14585;DHT22;7379;51.506;11.876;2023-05-15T15:07:09;17.90;59.00
14585;DHT22;7379;51.506;11.876;2023-05-15T15:09:38;17.90;58.90
14585;DHT22;7379;51.506;11.876;2023-05-15T15:12:05;17.90;58.70
14585;DHT22;7379;51.506;11.876;2023-05-15T15:14:32;17.80;58.50
14585;DHT22;7379;51.506;11.876;2023-05-15T15:17:00;17.80;58.40
14585;DHT22;7379;51.506;11.876;2023-05-15T15:19:27;17.70;58.30
14585;DHT22;7379;51.506;11.876;2023-05-15T15:21:54;17.70;58.40
14585;DHT22;7379;51.506;11.876;2023-05-15T15:24:20;17.60;58.40
14585;DHT22;7379;51.506;11.876;2023-05-15T15:26:47;17.60;58.50
14585;DHT22;7379;51.506;11.876;2023-05-15T15:29:14;17.60;58.60
14585;DHT22;7379;51.506;11.876;2023-05-15T15:31:41;17.60;58.20
14585;DHT22;7379;51.506;11.876;2023-05-15T15:34:09;17.50;58.30
14585;DHT22;7379;51.506;11.876;2023-05-15T15:36:36;17.50;58.40